RYR215 KBDL-KCED
Flight info
| Callsign | RYR215 |
|---|---|
| Flight time | N/A |
| Altitude | VFR/ |
| Route | |
| Aircraft | B38M/M-VGDW/C |
Departure
| Time | 2025-12-30 01:04 |
|---|---|
| Airport | Bradley International Airport (KBDL) |
Arrival
| Time | N/A |
|---|---|
| Airport | KCED |
| Time | Latitude | Longitude | Altitude | Speed | Heading |
|---|---|---|---|---|---|
| 2025-12-30 00:52 | 41.93776 | -72.69423 | 207 ft | 0 kts | 64° |
| 2025-12-30 00:54 | 41.93781 | -72.69392 | 211 ft | 3 kts | 99° |
| 2025-12-30 00:54 | 41.93775 | -72.69381 | 212 ft | 0 kts | 130° |
| 2025-12-30 00:55 | 41.93741 | -72.69331 | 211 ft | 11 kts | 133° |
| 2025-12-30 00:56 | 41.93787 | -72.69194 | 217 ft | 17 kts | 38° |
| 2025-12-30 00:56 | 41.93867 | -72.69040 | 209 ft | 1 kts | 137° |
| 2025-12-30 00:56 | 41.93862 | -72.69034 | 217 ft | 1 kts | 137° |
| 2025-12-30 00:57 | 41.93853 | -72.69023 | 214 ft | 0 kts | 137° |
| 2025-12-30 00:58 | 41.93827 | -72.68988 | 219 ft | 11 kts | 132° |
| 2025-12-30 00:58 | 41.93696 | -72.68777 | 211 ft | 10 kts | 123° |
| 2025-12-30 00:59 | 41.93733 | -72.68684 | 214 ft | 13 kts | 43° |
| 2025-12-30 00:59 | 41.93948 | -72.68423 | 210 ft | 24 kts | 45° |
| 2025-12-30 01:00 | 41.94204 | -72.68111 | 209 ft | 25 kts | 40° |
| 2025-12-30 01:00 | 41.94332 | -72.67951 | 212 ft | 26 kts | 46° |
| 2025-12-30 01:00 | 41.94600 | -72.67598 | 209 ft | 28 kts | 48° |
| 2025-12-30 01:01 | 41.94995 | -72.67146 | 212 ft | 14 kts | 338° |
| 2025-12-30 01:02 | 41.94989 | -72.67323 | 217 ft | 12 kts | 226° |
| 2025-12-30 01:02 | 41.94498 | -72.67971 | 223 ft | 118 kts | 225° |
| 2025-12-30 01:03 | 41.92896 | -72.70138 | 907 ft | 196 kts | 228° |
| 2025-12-30 01:03 | 41.90556 | -72.73076 | 2122 ft | 265 kts | 225° |
| 2025-12-30 01:04 | 41.89049 | -72.74763 | 2164 ft | 283 kts | 225° |
| 2025-12-30 01:04 | 41.87613 | -72.78875 | 2515 ft | 233 kts | 276° |
| 2025-12-30 01:05 | 41.88719 | -72.82760 | 2498 ft | 220 kts | 293° |
| 2025-12-30 01:05 | 41.92922 | -72.85030 | 2945 ft | 264 kts | 16° |
| 2025-12-30 01:06 | 41.95823 | -72.81680 | 4080 ft | 283 kts | 41° |
| 2025-12-30 01:06 | 41.98451 | -72.77732 | 4386 ft | 283 kts | 42° |
| 2025-12-30 01:07 | 42.01188 | -72.73995 | 3835 ft | 276 kts | 35° |
| 2025-12-30 01:07 | 42.04076 | -72.70570 | 3134 ft | 277 kts | 34° |
| 2025-12-30 01:08 | 42.05524 | -72.68880 | 2820 ft | 275 kts | 34° |
| 2025-12-30 01:08 | 42.08599 | -72.65977 | 2521 ft | 269 kts | 26° |
| 2025-12-30 01:09 | 42.11768 | -72.63241 | 2494 ft | 270 kts | 26° |
| 2025-12-30 01:09 | 42.16549 | -72.59385 | 2463 ft | 259 kts | 6° |
| 2025-12-30 01:10 | 42.20054 | -72.58908 | 2456 ft | 255 kts | 356° |
| 2025-12-30 01:10 | 42.23462 | -72.58573 | 2467 ft | 233 kts | 356° |
| 2025-12-30 01:11 | 42.26561 | -72.57827 | 2178 ft | 224 kts | 10° |
| 2025-12-30 01:11 | 42.27951 | -72.56859 | 1950 ft | 228 kts | 32° |
| 2025-12-30 01:12 | 42.29596 | -72.53342 | 1230 ft | 215 kts | 81° |
| 2025-12-30 01:12 | 42.28769 | -72.49848 | 652 ft | 197 kts | 134° |
| 2025-12-30 01:13 | 42.26282 | -72.48216 | 670 ft | 207 kts | 189° |
| 2025-12-30 01:13 | 42.22129 | -72.50847 | 624 ft | 219 kts | 218° |
| 2025-12-30 01:14 | 42.19722 | -72.52985 | 248 ft | 189 kts | 221° |